Time;durP1;ratioP1;P1;durP2;ratioP2;P2;SDS_P1;SDS_P2;PMS_P1;PMS_P2;Temp;Humidity;BMP_temperature;BMP_pressure;BME280_temperature;BME280_humidity;BME280_pressure;Samples;Min_cycle;Max_cycle;Signal;HPM_P1;HPM_P2
2023/04/04 06:59:23;;;;;;;7.30;2.20;;;;;;;1.73;57.81;97258.09;2084450;28;20573;-63
2023/04/04 07:01:20;;;;;;;5.10;2.75;;;;;;;1.81;57.27;97267.56;2081688;28;20561;-63
2023/04/04 07:02:22;;;;;;;9.95;2.67;;;;;;;2.29;57.02;97274.38;2082370;28;20197;-63
2023/04/04 07:03:24;;;;;;;4.25;1.90;;;;;;;2.25;57.04;97266.66;2083230;28;20203;-64
2023/04/04 07:04:26;;;;;;;8.73;2.00;;;;;;;2.64;56.54;97274.28;2078581;28;20201;-63
2023/04/04 07:05:28;;;;;;;7.40;2.28;;;;;;;2.70;55.50;97274.28;2080896;28;20192;-64
2023/04/04 07:06:30;;;;;;;5.47;2.20;;;;;;;2.22;54.60;97264.97;2081838;28;20270;-63
2023/04/04 07:07:31;;;;;;;11.82;2.20;;;;;;;2.16;56.08;97277.84;2081881;28;20231;-63
2023/04/04 07:08:32;;;;;;;5.75;2.55;;;;;;;2.58;55.59;97270.03;2083947;28;20561;-63
2023/04/04 07:09:37;;;;;;;6.57;2.47;;;;;;;2.62;54.63;97282.03;2083853;28;20198;-63
2023/04/04 07:10:39;;;;;;;5.57;2.60;;;;;;;1.52;56.16;97276.13;2081188;28;20219;-63
2023/04/04 07:11:41;;;;;;;9.48;2.30;;;;;;;1.90;57.79;97280.44;2081186;28;20228;-62
2023/04/04 07:12:43;;;;;;;2.83;1.90;;;;;;;2.66;56.62;97281.16;2078487;28;20848;-63
2023/04/04 07:13:44;;;;;;;4.43;1.80;;;;;;;2.91;54.95;97269.03;2080399;28;20212;-63
2023/04/04 07:14:46;;;;;;;7.28;2.30;;;;;;;3.34;54.94;97280.88;2078513;28;20657;-63
2023/04/04 07:15:50;;;;;;;5.20;2.50;;;;;;;2.73;54.24;97266.53;2078844;28;20210;-63
2023/04/04 07:16:52;;;;;;;8.13;2.35;;;;;;;3.38;53.94;97284.31;2081458;28;20227;-63
2023/04/04 07:17:53;;;;;;;7.65;2.25;;;;;;;3.70;52.89;97270.31;2081038;28;20198;-64
2023/04/04 07:18:55;;;;;;;7.97;2.03;;;;;;;3.62;53.13;97277.25;2075339;28;20239;-63
2023/04/04 07:19:57;;;;;;;8.18;2.20;;;;;;;3.98;52.50;97283.03;2082339;28;20234;-64
2023/04/04 07:20:58;;;;;;;9.57;2.20;;;;;;;4.18;52.02;97275.09;2081363;28;20224;-64
2023/04/04 07:22:00;;;;;;;7.47;1.85;;;;;;;4.43;50.93;97280.03;2077827;28;20298;-64
2023/04/04 07:23:01;;;;;;;5.50;2.17;;;;;;;4.76;50.65;97275.34;2080814;28;20243;-64
2023/04/04 07:24:03;;;;;;;5.65;2.15;;;;;;;3.99;49.80;97280.41;2080644;28;20201;-64
2023/04/04 07:25:05;;;;;;;5.93;2.10;;;;;;;3.81;50.93;97270.22;2080139;28;20648;-64
2023/04/04 07:26:07;;;;;;;6.32;2.05;;;;;;;4.29;50.56;97265.50;2081668;28;20695;-64
2023/04/04 07:27:08;;;;;;;3.00;1.98;;;;;;;4.65;50.59;97281.50;2082124;28;20933;-64
2023/04/04 07:28:10;;;;;;;6.72;2.05;;;;;;;4.78;49.63;97276.22;2080240;28;20209;-64
2023/04/04 07:29:13;;;;;;;4.70;1.95;;;;;;;5.20;48.36;97273.94;2080498;28;20281;-64
2023/04/04 07:30:15;;;;;;;3.83;2.17;;;;;;;4.98;49.14;97275.97;2082526;28;20201;-64
2023/04/04 07:31:17;;;;;;;6.85;1.70;;;;;;;4.72;49.62;97279.69;2077252;28;20830;-64
2023/04/04 07:32:18;;;;;;;5.00;2.22;;;;;;;4.89;48.74;97276.94;2078510;28;20664;-64
2023/04/04 07:33:20;;;;;;;7.68;2.50;;;;;;;4.80;49.11;97280.50;2081178;28;20290;-64
2023/04/04 07:34:21;;;;;;;7.15;2.08;;;;;;;4.55;48.63;97274.72;2082955;28;20811;-64
2023/04/04 07:35:22;;;;;;;6.60;2.33;;;;;;;4.71;49.45;97281.44;2082986;28;20663;-64
2023/04/04 07:36:24;;;;;;;5.55;2.08;;;;;;;4.01;50.00;97281.28;2082021;28;20240;-64
2023/04/04 07:37:26;;;;;;;4.45;2.22;;;;;;;4.36;49.63;97274.06;2082494;28;20644;-64
2023/04/04 07:38:27;;;;;;;12.10;2.70;;;;;;;4.78;49.70;97286.56;2083339;28;20791;-64
2023/04/04 07:39:29;;;;;;;5.60;2.28;;;;;;;5.18;49.25;97281.75;2082828;28;20198;-64
2023/04/04 07:40:30;;;;;;;6.32;1.95;;;;;;;5.58;47.98;97269.13;2078390;28;20198;-64
2023/04/04 07:41:32;;;;;;;7.28;2.78;;;;;;;5.69;48.06;97275.00;2078073;28;20236;-64
2023/04/04 07:42:34;;;;;;;6.03;2.15;;;;;;;5.84;47.84;97279.94;2081385;28;20240;-64
2023/04/04 07:43:37;;;;;;;10.02;2.28;;;;;;;5.76;46.66;97280.94;2078267;28;20721;-64
2023/04/04 07:44:38;;;;;;;3.53;1.80;;;;;;;5.31;46.76;97274.66;2080434;28;20206;-64
2023/04/04 07:45:40;;;;;;;5.35;2.50;;;;;;;5.68;47.71;97263.75;2081323;28;20704;-64
2023/04/04 07:46:41;;;;;;;13.50;2.63;;;;;;;5.82;47.63;97275.66;2079870;28;20310;-65
2023/04/04 07:47:43;;;;;;;6.80;2.20;;;;;;;5.24;47.43;97273.03;2081707;28;20208;-65
2023/04/04 07:48:45;;;;;;;4.78;1.85;;;;;;;5.92;47.28;97276.34;2083024;28;20204;-65
2023/04/04 07:49:46;;;;;;;6.72;2.10;;;;;;;6.46;46.07;97275.47;2082678;28;20226;-65
2023/04/04 07:50:48;;;;;;;4.45;1.90;;;;;;;6.16;45.75;97281.19;2083177;28;20193;-65
2023/04/04 07:51:49;;;;;;;7.72;2.20;;;;;;;6.03;46.96;97283.13;2081748;28;20261;-66
2023/04/04 07:52:53;;;;;;;5.63;1.73;;;;;;;6.28;46.75;97280.09;2080408;28;20296;-65
2023/04/04 07:53:55;;;;;;;9.05;2.20;;;;;;;6.50;45.72;97277.13;2080396;28;20204;-65
2023/04/04 07:54:56;;;;;;;10.15;6.03;;;;;;;6.90;45.87;97285.91;2082226;28;20196;-66
2023/04/04 07:55:58;;;;;;;72.45;37.42;;;;;;;7.46;44.55;97275.22;2080475;28;20204;-67
2023/04/04 07:56:59;;;;;;;33.08;19.88;;;;;;;7.08;44.79;97275.13;2077707;28;20233;-66
2023/04/04 07:58:01;;;;;;;13.13;7.35;;;;;;;6.48;45.68;97278.91;2080644;28;20239;-64
2023/04/04 07:59:03;;;;;;;8.57;3.90;;;;;;;4.98;47.47;97260.44;2083398;28;20304;-64
2023/04/04 08:00:08;;;;;;;6.60;2.25;;;;;;;5.12;47.37;97278.38;2083540;28;20189;-64
2023/04/04 08:01:10;;;;;;;6.78;2.20;;;;;;;5.54;47.59;97282.09;2080435;28;20254;-64
2023/04/04 08:02:12;;;;;;;7.80;2.75;;;;;;;5.97;46.24;97265.03;2084931;28;20257;-64
2023/04/04 08:03:13;;;;;;;6.50;2.40;;;;;;;6.98;44.67;97282.28;2085420;28;20227;-64
2023/04/04 08:04:15;;;;;;;8.20;2.20;;;;;;;7.23;43.87;97276.56;2081708;28;20193;-64
2023/04/04 08:05:17;;;;;;;5.78;2.20;;;;;;;7.07;43.67;97283.81;2081904;28;20648;-64
2023/04/04 08:06:18;;;;;;;8.90;2.10;;;;;;;7.21;43.65;97274.88;2080288;28;20189;-64
2023/04/04 08:07:20;;;;;;;4.55;1.90;;;;;;;6.47;44.02;97277.19;2079690;28;20197;-64
2023/04/04 08:08:21;;;;;;;6.60;2.00;;;;;;;6.61;45.07;97262.22;2081257;28;20240;-64
2023/04/04 08:09:23;;;;;;;3.65;2.25;;;;;;;6.95;43.56;97260.72;2084068;28;20207;-64
2023/04/04 08:10:25;;;;;;;3.65;1.67;;;;;;;6.89;43.87;97279.00;2084130;28;20265;-64
2023/04/04 08:11:27;;;;;;;8.43;2.53;;;;;;;7.34;44.02;97271.16;2077287;28;20229;-64
2023/04/04 08:12:28;;;;;;;6.45;2.25;;;;;;;7.59;42.79;97255.00;2074296;28;20214;-64
2023/04/04 08:13:30;;;;;;;4.60;2.20;;;;;;;7.61;42.82;97219.44;2075275;28;20197;-64
2023/04/04 08:14:31;;;;;;;5.88;2.58;;;;;;;8.18;43.28;97267.47;2074527;28;20814;-64
2023/04/04 08:15:33;;;;;;;8.70;2.60;;;;;;;7.49;43.84;97273.41;2076825;28;20724;-64
2023/04/04 08:16:34;;;;;;;4.82;1.80;;;;;;;8.14;43.49;97271.03;2074353;28;20228;-64
2023/04/04 08:17:36;;;;;;;9.40;2.15;;;;;;;7.28;41.46;97274.72;2075110;28;20659;-63
2023/04/04 08:18:38;;;;;;;7.13;2.50;;;;;;;5.14;44.76;97279.22;2074714;28;20235;-64
2023/04/04 08:19:40;;;;;;;9.85;2.30;;;;;;;4.31;47.09;97271.50;2075737;28;20563;-63
2023/04/04 08:20:42;;;;;;;5.05;2.13;;;;;;;4.44;47.71;97261.06;2077269;28;20243;-63
2023/04/04 08:21:44;;;;;;;5.88;2.40;;;;;;;5.68;47.39;97270.69;2074454;28;20232;-63
2023/04/04 08:22:45;;;;;;;5.25;2.63;;;;;;;6.09;45.80;97270.94;2072998;28;20636;-64
2023/04/04 08:23:47;;;;;;;4.05;2.20;;;;;;;6.83;45.30;97262.66;2074929;28;20193;-63
2023/04/04 08:24:48;;;;;;;9.35;2.53;;;;;;;7.54;44.27;97262.88;2070360;28;20681;-64
2023/04/04 08:25:50;;;;;;;6.18;2.10;;;;;;;7.58;43.98;97261.97;2075587;28;20208;-63
2023/04/04 08:26:51;;;;;;;7.78;2.20;;;;;;;7.91;43.22;97266.38;2074457;28;20277;-63
2023/04/04 08:28:05;;;;;;;8.60;2.97;;;;;;;6.28;44.48;97267.13;2078071;28;20212;-63
2023/04/04 08:29:07;;;;;;;4.40;2.40;;;;;;;6.05;45.29;97277.91;2075973;28;20292;-63
2023/04/04 08:30:09;;;;;;;12.00;2.30;;;;;;;6.90;44.51;97263.41;2072542;28;20200;-63
2023/04/04 08:31:11;;;;;;;6.47;2.65;;;;;;;7.17;43.66;97267.19;2072885;28;20236;-63
2023/04/04 08:32:14;;;;;;;6.03;2.25;;;;;;;7.57;43.28;97269.75;2076174;28;20201;-63
2023/04/04 08:33:16;;;;;;;9.88;2.20;;;;;;;7.97;42.91;97263.63;2077459;28;20194;-63
2023/04/04 08:34:19;;;;;;;17.65;2.47;;;;;;;8.21;42.12;97272.56;2075536;28;20225;-63
2023/04/04 08:35:21;;;;;;;9.15;2.50;;;;;;;7.33;42.79;97270.28;2075212;28;20244;-64
2023/04/04 08:36:22;;;;;;;12.23;2.55;;;;;;;7.31;43.38;97269.47;2077033;28;20202;-63
2023/04/04 08:37:23;;;;;;;5.72;2.22;;;;;;;7.47;43.41;97269.97;2077397;28;20200;-63
2023/04/04 08:38:25;;;;;;;4.55;2.33;;;;;;;7.38;43.48;97261.53;2076054;28;20568;-63
2023/04/04 08:39:26;;;;;;;6.97;1.90;;;;;;;6.42;44.10;97261.69;2075974;28;20222;-63
2023/04/04 08:40:30;;;;;;;7.63;2.63;;;;;;;7.32;44.49;97265.97;2077028;28;20215;-63
2023/04/04 08:41:35;;;;;;;5.45;1.70;;;;;;;7.95;43.44;97262.84;2075352;28;20255;-63
2023/04/04 08:42:43;;;;;;;3.65;1.75;;;;;;;7.69;43.17;97264.28;2074505;28;20197;-63
2023/04/04 08:43:47;;;;;;;6.07;2.15;;;;;;;7.49;44.06;97264.75;2073521;28;20198;-63
2023/04/04 08:44:52;;;;;;;3.97;2.45;;;;;;;5.87;43.60;97269.50;2074045;28;20267;-63
2023/04/04 08:45:55;;;;;;;11.70;2.38;;;;;;;5.02;46.37;97262.94;2074544;28;20211;-63
2023/04/04 08:47:01;;;;;;;12.32;2.75;;;;;;;4.13;48.83;97285.47;2072816;28;20613;-63
2023/04/04 08:48:05;;;;;;;12.35;2.38;;;;;;;4.52;47.82;97274.75;2075940;28;20209;-63
2023/04/04 08:49:08;;;;;;;6.20;2.50;;;;;;;4.68;47.66;97286.63;2079546;28;20194;-63
2023/04/04 08:50:12;;;;;;;4.95;2.38;;;;;;;4.26;47.68;97286.22;2078021;28;20205;-63
2023/04/04 08:51:16;;;;;;;11.48;2.20;;;;;;;4.03;47.70;97278.66;2081899;28;20266;-63
2023/04/04 08:52:31;;;;;;;6.53;2.38;;;;;;;4.81;47.91;97279.63;2081919;28;20215;-63
2023/04/04 08:53:36;;;;;;;10.00;2.47;;;;;;;3.58;48.37;97279.00;2081867;28;20966;-63
2023/04/04 08:54:39;;;;;;;8.45;2.95;;;;;;;3.66;50.05;97287.56;2081270;28;20284;-62
2023/04/04 08:55:43;;;;;;;4.63;2.08;;;;;;;3.54;48.67;97274.72;2081541;28;20190;-63
2023/04/04 08:56:45;;;;;;;6.55;2.60;;;;;;;2.91;50.56;97283.69;2073301;28;20747;-62
2023/04/04 08:57:48;;;;;;;9.45;2.05;;;;;;;2.92;50.12;97288.81;2077960;28;20233;-63
2023/04/04 08:58:49;;;;;;;10.48;1.80;;;;;;;2.11;51.40;97284.72;2072451;28;20240;-62
2023/04/04 08:59:50;;;;;;;4.68;1.70;;;;;;;2.29;51.18;97283.84;2075624;28;20290;-62
2023/04/04 09:00:53;;;;;;;9.70;2.38;;;;;;;2.92;50.78;97275.03;2073484;28;20255;-62
2023/04/04 09:02:13;;;;;;;13.23;2.10;;;;;;;3.69;50.50;97281.50;2075642;28;20284;-62
2023/04/04 09:03:23;;;;;;;8.35;2.97;;;;;;;4.72;48.84;97282.28;2076924;28;20230;-62
2023/04/04 09:04:26;;;;;;;5.15;1.85;;;;;;;4.47;48.14;97255.81;2076026;28;20200;-62
2023/04/04 09:05:28;;;;;;;7.40;1.90;;;;;;;5.44;47.66;97267.56;2072299;28;20226;-63
2023/04/04 09:06:33;;;;;;;3.45;2.05;;;;;;;5.40;46.64;97269.34;2072767;28;20225;-63
2023/04/04 09:07:36;;;;;;;4.13;2.08;;;;;;;5.56;46.90;97275.19;2079536;28;20291;-63
2023/04/04 09:08:41;;;;;;;3.92;2.30;;;;;;;5.09;45.93;97284.44;2079116;28;20271;-63
2023/04/04 09:09:46;;;;;;;8.48;2.60;;;;;;;3.65;46.95;97278.09;2074703;28;20209;-63
2023/04/04 09:10:48;;;;;;;5.93;2.50;;;;;;;4.19;47.01;97271.63;2074377;28;20201;-63
2023/04/04 09:11:50;;;;;;;7.25;2.35;;;;;;;4.42;47.56;97268.84;2074590;28;20252;-63
2023/04/04 09:12:54;;;;;;;7.90;2.45;;;;;;;3.81;47.91;97277.97;2072137;28;20255;-63
2023/04/04 09:14:03;;;;;;;17.33;3.80;;;;;;;3.27;48.53;97236.16;2074809;28;20268;-63
2023/04/04 09:15:05;;;;;;;8.02;2.22;;;;;;;4.83;47.61;97282.19;2067242;28;20281;-63
2023/04/04 09:16:07;;;;;;;5.93;2.30;;;;;;;5.52;45.83;97278.69;2073502;28;20561;-63
2023/04/04 09:17:09;;;;;;;4.45;2.25;;;;;;;4.83;45.61;97277.00;2075224;28;20578;-63
2023/04/04 09:18:11;;;;;;;3.47;1.75;;;;;;;6.02;45.61;97288.34;2073291;28;20221;-63
2023/04/04 09:19:12;;;;;;;11.15;2.60;;;;;;;6.80;45.20;97280.03;2073986;28;20684;-63
2023/04/04 09:20:32;;;;;;;5.38;2.30;;;;;;;7.38;44.60;97282.31;2074376;28;20233;-63
2023/04/04 09:21:34;;;;;;;9.57;2.17;;;;;;;6.63;43.48;97286.41;2071615;28;20228;-63
2023/04/04 09:22:43;;;;;;;5.10;1.80;;;;;;;4.95;43.82;97278.59;2072368;28;20217;-62
2023/04/04 09:23:44;;;;;;;7.55;1.70;;;;;;;2.94;46.29;97279.34;2075189;28;20201;-61
2023/04/04 09:24:47;;;;;;;8.88;1.88;;;;;;;3.81;47.80;97285.72;2074665;28;20210;-62
2023/04/04 09:25:51;;;;;;;6.70;2.70;;;;;;;4.39;46.73;97274.88;2075148;28;20259;-62
2023/04/04 09:27:05;;;;;;;13.00;2.28;;;;;;;5.50;45.98;97274.41;2074084;28;20217;-62
2023/04/04 09:28:07;;;;;;;5.20;1.80;;;;;;;4.54;45.65;97280.78;2072162;28;20201;-62
2023/04/04 09:29:08;;;;;;;3.88;1.73;;;;;;;3.27;46.29;97274.03;2076264;28;20202;-62
2023/04/04 09:30:10;;;;;;;5.72;2.20;;;;;;;3.29;47.52;97284.34;2075368;28;20258;-61
2023/04/04 09:31:12;;;;;;;4.63;2.00;;;;;;;3.58;47.38;97279.88;2072970;28;20292;-61
2023/04/04 09:32:16;;;;;;;3.58;1.73;;;;;;;4.39;46.78;97281.78;2075113;28;20657;-62
2023/04/04 09:33:23;;;;;;;4.63;1.90;;;;;;;3.28;45.61;97278.31;2076954;28;20804;-61
2023/04/04 09:34:27;;;;;;;5.55;2.28;;;;;;;3.88;47.14;97267.56;2075703;28;20200;-61
2023/04/04 09:35:31;;;;;;;4.50;1.98;;;;;;;5.13;45.85;97267.13;2075645;28;20232;-61
2023/04/04 09:36:34;;;;;;;6.25;2.10;;;;;;;5.72;45.01;97277.53;2075694;28;20357;-61
2023/04/04 09:37:35;;;;;;;3.20;1.90;;;;;;;5.42;45.13;97274.50;2077082;28;20204;-62
2023/04/04 09:38:44;;;;;;;8.05;2.30;;;;;;;5.13;45.17;97277.50;2073747;28;20201;-62
2023/04/04 09:39:47;;;;;;;7.50;1.95;;;;;;;5.93;44.82;97278.94;2071959;28;20264;-61
2023/04/04 09:40:48;;;;;;;3.80;2.13;;;;;;;6.87;43.76;97273.84;2073832;28;20246;-62
2023/04/04 09:41:50;;;;;;;6.50;2.10;;;;;;;7.31;43.40;97271.22;2074191;28;20233;-62
2023/04/04 09:42:53;;;;;;;5.43;2.10;;;;;;;7.65;41.76;97273.91;2073367;28;20200;-62
2023/04/04 09:43:56;;;;;;;7.88;2.40;;;;;;;7.88;43.01;97258.66;2075201;28;20198;-62
2023/04/04 09:44:58;;;;;;;8.50;2.17;;;;;;;8.65;41.24;97268.00;2071984;28;20200;-62
2023/04/04 09:46:00;;;;;;;2.08;1.60;;;;;;;6.82;40.80;97273.09;2072426;28;20668;-62
2023/04/04 09:47:27;;;;;;;4.65;1.48;;;;;;;5.62;44.31;97282.00;2071959;28;20321;-62
2023/04/04 09:48:34;;;;;;;6.25;2.28;;;;;;;4.54;44.31;97280.78;2072682;28;20568;-62
2023/04/04 09:49:35;;;;;;;5.93;2.05;;;;;;;3.96;45.57;97280.47;2074060;28;20202;-62
2023/04/04 09:50:44;;;;;;;7.75;2.38;;;;;;;4.87;45.96;97274.34;2075486;28;20255;-61
2023/04/04 09:51:53;;;;;;;4.57;2.05;;;;;;;4.82;46.94;97273.53;2074628;28;20224;-61
2023/04/04 09:52:59;;;;;;;7.78;3.25;;;;;;;6.34;44.74;97267.03;2079237;28;20601;-62
2023/04/04 09:54:01;;;;;;;3.45;2.33;;;;;;;7.17;43.02;97271.50;2078637;28;20201;-62
2023/04/04 09:55:04;;;;;;;9.25;2.03;;;;;;;8.03;41.81;97273.06;2076402;28;20226;-61
2023/04/04 09:56:05;;;;;;;8.07;2.40;;;;;;;8.31;41.34;97270.59;2074749;28;20684;-62
2023/04/04 09:57:07;;;;;;;7.35;2.25;;;;;;;6.81;42.57;97274.81;2074111;28;20197;-62
2023/04/04 09:58:14;;;;;;;6.85;2.70;;;;;;;8.40;42.18;97278.16;2074782;28;20213;-62
2023/04/04 09:59:17;;;;;;;3.92;1.83;;;;;;;8.93;41.12;97279.41;2075360;28;20195;-62
2023/04/04 10:00:19;;;;;;;5.72;2.00;;;;;;;8.49;40.97;97272.78;2071775;28;20209;-62
2023/04/04 10:01:22;;;;;;;4.07;2.05;;;;;;;8.78;42.32;97284.13;2071063;28;20209;-62
2023/04/04 10:02:25;;;;;;;6.28;2.22;;;;;;;8.65;41.16;97277.56;2075851;28;20297;-62
2023/04/04 10:03:27;;;;;;;3.83;1.80;;;;;;;9.44;40.56;97263.13;2075968;28;20194;-62
2023/04/04 10:04:31;;;;;;;7.00;2.25;;;;;;;9.74;40.84;97275.31;2074569;28;20679;-62
2023/04/04 10:05:32;;;;;;;5.20;2.22;;;;;;;10.38;39.99;97269.75;2075282;28;20883;-62
2023/04/04 10:06:36;;;;;;;5.50;2.30;;;;;;;10.54;39.37;97272.69;2073932;28;20221;-62
2023/04/04 10:07:39;;;;;;;7.78;1.98;;;;;;;10.41;38.35;97280.09;2076296;28;20249;-62
2023/04/04 10:08:41;;;;;;;9.35;3.50;;;;;;;10.05;39.47;97282.97;2074423;28;20201;-62
2023/04/04 10:09:46;;;;;;;5.22;2.85;;;;;;;8.70;38.37;97274.81;2076501;28;20462;-62
2023/04/04 10:10:51;;;;;;;3.97;2.17;;;;;;;8.70;38.48;97262.66;2074277;28;20204;-62
2023/04/04 10:12:10;;;;;;;9.43;3.10;;;;;;;9.34;38.81;97279.97;2073620;28;20723;-62
2023/04/04 10:13:12;;;;;;;5.95;2.33;;;;;;;9.27;38.42;97271.47;2072801;28;20205;-62
2023/04/04 10:14:14;;;;;;;3.50;1.60;;;;;;;9.72;39.28;97277.09;2076751;28;20204;-62
2023/04/04 10:15:16;;;;;;;14.38;2.58;;;;;;;8.54;40.39;97270.03;2076109;28;20198;-62
2023/04/04 10:16:17;;;;;;;4.75;2.28;;;;;;;10.24;39.51;97264.13;2074824;28;20216;-62
2023/04/04 10:17:20;;;;;;;5.07;2.45;;;;;;;10.52;37.70;97269.28;2075035;28;20205;-63
2023/04/04 10:18:26;;;;;;;4.22;2.08;;;;;;;10.59;37.72;97267.34;2071776;28;20243;-62
2023/04/04 10:19:27;;;;;;;5.13;1.67;;;;;;;11.13;38.03;97260.16;2073211;28;20603;-62
2023/04/04 10:20:30;;;;;;;5.68;2.25;;;;;;;11.60;37.36;97267.97;2075820;28;20564;-62
2023/04/04 10:21:33;;;;;;;4.93;2.60;;;;;;;11.67;37.81;97265.09;2077712;28;20715;-63
2023/04/04 10:22:36;;;;;;;4.47;2.28;;;;;;;11.79;37.93;97263.78;2073369;28;20565;-61
2023/04/04 10:23:40;;;;;;;6.57;2.05;;;;;;;12.28;36.44;97264.44;2075067;28;20320;-62
2023/04/04 10:24:41;;;;;;;16.20;8.60;;;;;;;11.25;37.33;97259.72;2074813;28;20653;-61
2023/04/04 10:25:43;;;;;;;7.50;4.10;;;;;;;11.79;37.00;97264.63;2072972;28;20236;-61
2023/04/04 10:26:45;;;;;;;7.15;2.50;;;;;;;8.59;38.35;97272.53;2071262;28;20229;-60
2023/04/04 10:27:46;;;;;;;3.92;2.10;;;;;;;9.38;37.85;97265.94;2072434;28;20657;-61
2023/04/04 10:28:51;;;;;;;5.85;1.63;;;;;;;8.67;37.43;97260.13;2075547;28;20247;-61
2023/04/04 10:29:52;;;;;;;4.18;1.95;;;;;;;9.36;38.17;97259.06;2076768;28;20204;-64
2023/04/04 10:30:57;;;;;;;5.68;2.30;;;;;;;9.54;38.32;97271.53;2076134;28;20672;-64
2023/04/04 10:32:15;;;;;;;8.20;2.30;;;;;;;11.08;36.66;97265.56;2075659;28;20209;-63
2023/04/04 10:33:27;;;;;;;5.90;2.50;;;;;;;10.12;36.52;97265.41;2075434;28;20205;-64
2023/04/04 10:34:40;;;;;;;4.40;2.22;;;;;;;10.42;37.56;97268.78;2074822;28;20198;-63
2023/04/04 10:35:46;;;;;;;4.45;2.47;;;;;;;11.76;36.32;97268.22;2072971;28;20825;-64
2023/04/04 10:36:50;;;;;;;4.30;2.10;;;;;;;12.43;35.41;97259.47;2076167;28;20727;-64
2023/04/04 10:37:57;;;;;;;8.07;2.20;;;;;;;13.27;34.32;97260.16;2075452;28;20201;-64
2023/04/04 10:39:22;;;;;;;4.65;2.00;;;;;;;12.08;33.07;97260.00;2075330;28;20256;-64
2023/04/04 10:40:33;;;;;;;6.22;1.80;;;;;;;11.10;35.45;97253.28;2074898;28;20209;-64
2023/04/04 10:41:35;;;;;;;5.25;2.35;;;;;;;12.00;35.00;97267.31;2073199;28;20214;-64
2023/04/04 10:42:46;;;;;;;7.90;2.55;;;;;;;12.95;34.82;97251.97;2074314;28;20196;-64
2023/04/04 10:43:51;;;;;;;4.00;2.10;;;;;;;12.37;34.85;97273.69;2075596;28;20295;-64
2023/04/04 10:44:52;;;;;;;10.25;2.47;;;;;;;9.69;37.62;97269.34;2075186;28;20197;-64
2023/04/04 10:46:00;;;;;;;10.93;2.60;;;;;;;11.38;36.22;97272.31;2074932;28;20197;-64
2023/04/04 10:47:20;;;;;;;5.88;2.53;;;;;;;11.79;36.65;97280.31;2076081;28;20236;-63
2023/04/04 10:48:24;;;;;;;4.40;2.17;;;;;;;13.27;35.06;97269.75;2073704;28;20303;-64
2023/04/04 10:49:26;;;;;;;5.50;1.98;;;;;;;13.29;33.66;97270.56;2074482;28;20219;-64
2023/04/04 10:50:30;;;;;;;5.75;2.47;;;;;;;10.98;34.44;97258.13;2074395;28;20233;-64
2023/04/04 10:51:32;;;;;;;6.78;2.80;;;;;;;10.99;34.66;97263.28;2073501;28;20699;-64
2023/04/04 10:52:46;;;;;;;7.10;2.75;;;;;;;12.38;34.47;97257.06;2075425;28;20201;-64
2023/04/04 10:53:48;;;;;;;5.32;2.05;;;;;;;13.33;34.57;97243.25;2075230;28;20198;-64
2023/04/04 10:54:56;;;;;;;4.38;2.40;;;;;;;12.96;33.55;97250.19;2075067;28;20240;-64
2023/04/04 10:56:00;;;;;;;4.80;2.63;;;;;;;13.07;34.57;97254.03;2073253;28;20210;-64
2023/04/04 10:57:02;;;;;;;7.55;2.67;;;;;;;13.05;34.10;97266.38;2073330;28;20228;-64
2023/04/04 10:58:05;;;;;;;9.85;2.50;;;;;;;13.59;34.09;97268.31;2075017;28;20665;-61
2023/04/04 10:59:14;;;;;;;4.80;2.13;;;;;;;14.02;33.61;97262.81;2077016;28;20576;-62
2023/04/04 11:00:18;;;;;;;5.30;2.20;;;;;;;14.56;33.62;97265.38;2073597;28;20205;-61
2023/04/04 11:01:20;;;;;;;4.95;2.05;;;;;;;14.77;33.80;97260.00;2072408;28;20236;-62
2023/04/04 11:02:42;;;;;;;4.50;1.92;;;;;;;14.79;32.41;97256.34;2074115;28;20243;-61
2023/04/04 11:04:18;;;;;;;4.75;1.90;;;;;;;14.66;31.96;97261.38;2075747;28;20531;-61
2023/04/04 11:05:50;;;;;;;6.20;2.08;;;;;;;11.07;35.03;97253.41;2075200;28;20254;-62
2023/04/04 11:07:08;;;;;;;25.60;4.55;;;;;;;11.98;35.74;97253.47;2073219;28;20236;-61
2023/04/04 11:08:12;;;;;;;7.38;2.33;;;;;;;10.27;34.67;97256.19;2075581;28;20247;-61
2023/04/04 11:09:14;;;;;;;4.38;2.25;;;;;;;10.10;36.69;97260.19;2075040;28;20196;-61
2023/04/04 11:10:22;;;;;;;6.88;1.85;;;;;;;11.99;35.15;97255.16;2074977;28;20683;-61
2023/04/04 11:11:25;;;;;;;8.25;2.13;;;;;;;11.38;34.27;97254.03;2075098;28;20199;-61
2023/04/04 11:12:33;;;;;;;6.75;2.40;;;;;;;12.89;35.23;97247.84;2075362;28;20206;-61
2023/04/04 11:13:34;;;;;;;6.07;2.33;;;;;;;14.04;35.05;97250.44;2073654;28;20195;-61
2023/04/04 11:14:36;;;;;;;6.85;2.08;;;;;;;14.48;34.23;97249.16;2074148;28;20219;-61
2023/04/04 11:15:58;;;;;;;6.80;2.30;;;;;;;14.58;33.23;97244.28;2075011;28;20348;-62
2023/04/04 11:17:09;;;;;;;2.83;1.73;;;;;;;14.23;33.80;97253.00;2074481;28;20219;-63
2023/04/04 11:18:12;;;;;;;5.32;2.40;;;;;;;14.39;34.30;97234.69;2076116;28;20240;-63
2023/04/04 11:19:32;;;;;;;10.55;2.75;;;;;;;15.27;33.26;97238.03;2074738;28;20239;-61
2023/04/04 11:20:35;;;;;;;5.53;2.50;;;;;;;15.49;32.26;97250.88;2075140;28;20193;-62
2023/04/04 11:21:38;;;;;;;8.50;2.42;;;;;;;12.09;31.74;97243.41;2073328;28;20241;-62
2023/04/04 11:22:41;;;;;;;11.38;3.47;;;;;;;12.31;34.08;97243.34;2074042;28;20207;-61
2023/04/04 11:23:48;;;;;;;25.05;2.85;;;;;;;11.79;35.54;97248.91;2074422;28;20275;-61
2023/04/04 11:24:58;;;;;;;5.18;2.00;;;;;;;12.17;33.58;97233.44;2075929;28;20200;-61
2023/04/04 11:26:02;;;;;;;4.40;2.30;;;;;;;12.20;34.56;97240.31;2073953;28;20570;-62
2023/04/04 11:27:05;;;;;;;5.03;2.30;;;;;;;11.65;33.08;97241.63;2075113;28;20281;-62
2023/04/04 11:28:13;;;;;;;5.22;2.40;;;;;;;9.74;36.80;97244.00;2077349;28;20224;-62
2023/04/04 11:29:52;;;;;;;5.35;1.52;;;;;;;12.08;37.46;97245.16;2075694;28;20209;-62
2023/04/04 11:31:19;;;;;;;7.90;2.40;;;;;;;13.69;33.67;97237.25;2075748;28;20204;-63
2023/04/04 11:32:42;;;;;;;3.78;1.80;;;;;;;13.80;34.43;97242.84;2073830;28;20225;-61
2023/04/04 11:34:12;;;;;;;5.10;1.83;;;;;;;14.20;32.40;97233.00;2074758;28;20219;-61
2023/04/04 11:35:14;;;;;;;8.68;2.25;;;;;;;14.19;33.16;97230.44;2073147;28;20197;-61
2023/04/04 11:36:49;;;;;;;4.57;2.05;;;;;;;14.42;33.80;97238.94;2071947;28;20302;-61
2023/04/04 11:37:53;;;;;;;9.73;3.03;;;;;;;14.63;33.30;97237.84;2071717;28;20543;-61
2023/04/04 11:38:57;;;;;;;2.88;1.75;;;;;;;14.85;33.24;97240.25;2071281;28;20200;-61
2023/04/04 11:40:08;;;;;;;3.45;2.20;;;;;;;14.54;33.01;97226.03;2074792;28;20672;-61
2023/04/04 11:41:10;;;;;;;5.43;2.30;;;;;;;14.52;33.20;97230.53;2073874;28;20560;-64
2023/04/04 11:42:13;;;;;;;7.90;2.28;;;;;;;14.96;32.77;97236.22;2074325;28;20201;-61
2023/04/04 11:43:15;;;;;;;6.25;2.17;;;;;;;14.51;32.37;97233.22;2074305;28;20201;-61
2023/04/04 11:44:18;;;;;;;5.32;2.20;;;;;;;15.09;32.84;97234.59;2074347;28;20202;-62
2023/04/04 11:45:20;;;;;;;5.47;2.17;;;;;;;14.68;31.39;97235.03;2075179;28;20194;-62
2023/04/04 11:46:22;;;;;;;4.15;2.25;;;;;;;14.98;31.83;97229.06;2074022;28;20619;-62
2023/04/04 11:47:24;;;;;;;3.85;1.80;;;;;;;15.48;31.66;97230.75;2076024;28;20656;-62
2023/04/04 11:48:26;;;;;;;6.82;2.50;;;;;;;15.62;30.84;97239.66;2077694;28;20512;-62
2023/04/04 11:49:29;;;;;;;9.13;2.35;;;;;;;14.78;30.88;97243.25;2072733;28;20314;-62
2023/04/04 11:50:35;;;;;;;5.20;2.28;;;;;;;14.92;30.97;97213.63;2074141;28;20201;-62
2023/04/04 11:51:40;;;;;;;4.70;2.17;;;;;;;14.99;31.01;97210.56;2075584;28;20232;-62
2023/04/04 11:52:42;;;;;;;9.98;2.30;;;;;;;15.70;30.81;97226.06;2075320;28;20431;-62
2023/04/04 11:53:46;;;;;;;9.02;3.47;;;;;;;15.50;32.71;97239.41;2076324;28;20201;-62
2023/04/04 11:54:48;;;;;;;7.65;2.40;;;;;;;11.19;34.08;97239.03;2078305;28;20197;-61
2023/04/04 11:55:52;;;;;;;5.97;1.73;;;;;;;11.30;34.89;97230.78;2077631;28;20197;-62
2023/04/04 11:56:53;;;;;;;5.63;2.20;;;;;;;12.89;33.23;97224.25;2074045;28;20264;-61
2023/04/04 11:57:57;;;;;;;8.52;3.00;;;;;;;13.79;32.59;97228.00;2074424;28;20285;-62
2023/04/04 11:58:58;;;;;;;7.57;2.60;;;;;;;13.92;32.27;97227.44;2075684;28;20576;-62
2023/04/04 12:00:26;;;;;;;4.10;2.45;;;;;;;13.96;33.51;97229.81;2077200;28;20827;-62
2023/04/04 12:01:28;;;;;;;5.90;2.53;;;;;;;11.43;34.76;97228.53;2076263;28;20236;-62
2023/04/04 12:02:33;;;;;;;9.15;2.20;;;;;;;11.37;33.87;97226.16;2076684;28;20201;-61
2023/04/04 12:03:35;;;;;;;21.40;3.38;;;;;;;9.59;36.65;97225.31;2076781;28;20217;-65
2023/04/04 12:04:38;;;;;;;4.45;2.70;;;;;;;8.85;36.84;97221.47;2077815;28;20204;-61
2023/04/04 12:05:43;;;;;;;12.55;2.63;;;;;;;8.48;38.02;97216.41;2073999;28;20970;-61
2023/04/04 12:06:53;;;;;;;6.10;2.30;;;;;;;10.55;36.51;97221.31;2075442;28;20221;-61